createdAt,value
2018-09-17T00:00:10.423Z,24
2018-09-17T00:01:00.517Z,24
2018-09-17T00:01:50.874Z,24
2018-09-17T00:02:41.244Z,24.1
2018-09-17T00:03:30.958Z,24
2018-09-17T00:04:21.027Z,24
2018-09-17T00:05:11.402Z,24
2018-09-17T00:06:01.168Z,24
2018-09-17T00:06:51.807Z,24
2018-09-17T00:07:42.118Z,24
2018-09-17T00:08:31.924Z,24
2018-09-17T00:09:21.709Z,24
2018-09-17T00:10:11.582Z,24
2018-09-17T00:11:01.531Z,24
2018-09-17T00:11:51.591Z,24
2018-09-17T00:12:41.949Z,24
2018-09-17T00:13:32.311Z,24
2018-09-17T00:14:21.794Z,24
2018-09-17T00:15:12.997Z,24
2018-09-17T00:16:01.899Z,23.9
2018-09-17T00:16:52.541Z,24
2018-09-17T00:17:42.377Z,24
2018-09-17T00:18:32.116Z,24
2018-09-17T00:19:22.435Z,24
2018-09-17T00:20:12.216Z,24
2018-09-17T00:21:02.568Z,24
2018-09-17T00:21:52.643Z,24
2018-09-17T00:22:42.398Z,24
2018-09-17T00:23:33.040Z,24
2018-09-17T00:24:23.120Z,24
2018-09-17T00:25:12.861Z,24
2018-09-17T00:26:02.648Z,23.9
2018-09-17T00:26:53.006Z,23.9
2018-09-17T00:27:43.061Z,23.9
2018-09-17T00:28:33.468Z,23.9
2018-09-17T00:29:23.006Z,23.9
2018-09-17T00:30:12.988Z,23.9
2018-09-17T00:31:03.312Z,24
2018-09-17T00:31:53.070Z,24
2018-09-17T00:32:43.418Z,23.9
2018-09-17T00:33:33.232Z,23.9
2018-09-17T00:34:23.638Z,23.9
2018-09-17T00:35:13.657Z,23.9
2018-09-17T00:36:03.445Z,23.9
2018-09-17T00:36:54.035Z,23.9
2018-09-17T00:56:28.331Z,23.9
2018-09-17T00:57:17.619Z,23.9
2018-09-17T00:58:08.256Z,23.9
2018-09-17T00:58:58.025Z,23.9
2018-09-17T00:59:48.121Z,23.9
2018-09-17T01:00:38.443Z,23.9
2018-09-17T01:01:28.751Z,23.9
2018-09-17T01:02:18.549Z,23.9
2018-09-17T01:03:08.313Z,23.9
2018-09-17T01:03:58.675Z,23.9
2018-09-17T01:04:48.756Z,23.9
2018-09-17T01:05:38.514Z,23.9
2018-09-17T01:06:28.877Z,23.9
2018-09-17T01:07:18.920Z,23.9
2018-09-17T01:08:09.565Z,23.9
2018-09-17T01:08:59.042Z,23.9
2018-09-17T01:09:49.120Z,23.9
2018-09-17T01:10:39.174Z,23.9
2018-09-17T01:11:29.724Z,23.9
2018-09-17T01:12:19.654Z,23.9
2018-09-17T01:13:09.342Z,23.9
2018-09-17T01:13:58.553Z,23.9
2018-09-17T01:14:49.758Z,23.9
2018-09-17T01:15:39.538Z,23.8
2018-09-17T01:16:29.282Z,23.9
2018-09-17T01:17:19.681Z,23.9
2018-09-17T01:18:09.685Z,23.9
2018-09-17T01:18:59.762Z,23.9
2018-09-17T01:19:49.540Z,23.8
2018-09-17T01:20:39.727Z,23.8
2018-09-17T01:21:30.179Z,23.9
2018-09-17T01:22:20.042Z,23.8
2018-09-17T01:23:10.476Z,23.9
2018-09-17T01:24:00.142Z,23.9
2018-09-17T01:24:50.528Z,23.8
2018-09-17T01:25:40.547Z,23.8
2018-09-17T01:26:30.324Z,23.8
2018-09-17T01:27:20.369Z,23.8
2018-09-17T01:28:11.002Z,23.9
2018-09-17T01:29:00.812Z,23.8
2018-09-17T01:29:50.858Z,23.8
2018-09-17T01:30:41.452Z,23.8
2018-09-17T01:31:30.714Z,23.8
2018-09-17T01:32:20.732Z,23.8
2018-09-17T01:33:11.100Z,23.8
2018-09-17T01:34:01.466Z,23.8
2018-09-17T01:34:51.264Z,23.8
2018-09-17T01:35:40.729Z,23.8
2018-09-17T01:36:31.079Z,23.8
2018-09-17T01:37:20.659Z,23.8
2018-09-17T01:38:10.899Z,23.8
2018-09-17T01:39:01.536Z,23.8
2018-09-17T01:39:51.338Z,23.8
2018-09-17T01:40:41.676Z,23.8
2018-09-17T01:41:31.453Z,23.8
2018-09-17T01:42:21.730Z,23.8
2018-09-17T01:43:11.852Z,23.8
2018-09-17T01:44:01.949Z,23.8
2018-09-17T01:44:51.416Z,23.8
2018-09-17T01:45:41.761Z,23.8
2018-09-17T01:46:31.852Z,23.8
2018-09-17T01:47:21.943Z,23.8
2018-09-17T01:48:11.982Z,23.8
2018-09-17T01:49:02.313Z,23.8
2018-09-17T01:49:52.358Z,23.8
2018-09-17T01:50:42.427Z,23.8
2018-09-17T01:51:32.468Z,23.8
2018-09-17T01:52:22.841Z,23.8
2018-09-17T01:53:12.323Z,23.8
2018-09-17T01:54:02.663Z,23.8
2018-09-17T01:54:52.766Z,23.8
2018-09-17T01:55:42.240Z,23.8
2018-09-17T01:56:32.310Z,23.8
2018-09-17T01:57:22.083Z,23.8
2018-09-17T01:58:12.677Z,23.8
2018-09-17T01:59:02.469Z,23.8
2018-09-17T01:59:52.811Z,23.8
2018-09-17T02:00:42.856Z,23.8
2018-09-17T02:01:32.962Z,23.8
2018-09-17T02:02:23.310Z,23.8
2018-09-17T02:03:13.162Z,23.8
2018-09-17T02:04:03.161Z,23.8
2018-09-17T02:04:53.481Z,23.8
2018-09-17T02:05:43.549Z,23.8
2018-09-17T02:06:33.602Z,23.8
2018-09-17T02:07:22.892Z,23.8
2018-09-17T02:08:13.547Z,23.8
2018-09-17T02:09:03.963Z,23.8
2018-09-17T02:09:53.731Z,23.8
2018-09-17T02:10:43.080Z,23.7
2018-09-17T02:11:33.706Z,23.8
2018-09-17T02:12:24.085Z,23.8
2018-09-17T02:13:13.889Z,23.8
2018-09-17T02:14:03.599Z,23.8
2018-09-17T02:14:53.851Z,23.7
2018-09-17T02:15:44.032Z,23.8
2018-09-17T02:16:34.056Z,23.7
2018-09-17T02:17:24.139Z,23.7
2018-09-17T02:18:14.194Z,23.8
2018-09-17T02:19:04.264Z,23.8
2018-09-17T02:19:54.657Z,23.7
2018-09-17T02:20:44.379Z,23.8
2018-09-17T02:21:34.438Z,23.8
2018-09-17T02:22:24.494Z,23.7
2018-09-17T02:23:14.307Z,23.7
2018-09-17T02:24:04.448Z,23.7
2018-09-17T02:24:54.968Z,23.7
2018-09-17T02:25:45.021Z,23.7
2018-09-17T02:26:35.111Z,23.7
2018-09-17T02:27:24.869Z,23.7
2018-09-17T02:28:14.938Z,23.7
2018-09-17T02:29:05.248Z,23.7
2018-09-17T02:29:55.370Z,23.7
2018-09-17T02:30:44.556Z,23.7
2018-09-17T02:31:35.231Z,23.7
2018-09-17T02:32:25.270Z,23.7
2018-09-17T02:33:15.312Z,23.7
2018-09-17T02:34:05.907Z,23.7
2018-09-17T02:34:55.442Z,23.7
2018-09-17T02:35:45.200Z,23.7
2018-09-17T02:36:35.325Z,23.7
2018-09-17T02:37:25.628Z,23.7
2018-09-17T02:38:15.691Z,23.7
2018-09-17T02:39:06.010Z,23.7
2018-09-17T02:39:56.124Z,23.7
2018-09-17T02:40:45.855Z,23.7
2018-09-17T02:41:35.955Z,23.7
2018-09-17T02:42:26.321Z,23.7
2018-09-17T02:43:15.792Z,23.7
2018-09-17T02:44:06.370Z,23.7
2018-09-17T02:44:56.242Z,23.7
2018-09-17T02:45:45.965Z,23.6
2018-09-17T02:46:36.027Z,23.7
2018-09-17T02:47:26.392Z,23.7
2018-09-17T02:48:16.970Z,23.7
2018-09-17T02:49:06.795Z,23.7
2018-09-17T02:49:56.637Z,23.6
2018-09-17T02:50:46.936Z,23.7
2018-09-17T02:51:36.703Z,23.7
2018-09-17T02:52:27.038Z,23.6
2018-09-17T02:53:17.099Z,23.6
2018-09-17T02:54:06.863Z,23.6
2018-09-17T02:54:57.216Z,23.6
2018-09-17T02:55:47.065Z,23.7
2018-09-17T02:56:37.337Z,23.6
2018-09-17T02:57:27.124Z,23.6
2018-09-17T02:58:17.494Z,23.7
2018-09-17T02:59:08.117Z,23.6
2018-09-17T02:59:57.597Z,23.6
2018-09-17T03:00:47.081Z,23.6
2018-09-17T03:01:37.581Z,23.6
2018-09-17T03:02:27.779Z,23.6
2018-09-17T03:03:17.551Z,23.6
2018-09-17T03:04:07.941Z,23.6
2018-09-17T03:04:57.391Z,23.6
2018-09-17T03:05:48.036Z,23.6
2018-09-17T03:06:38.091Z,23.6
2018-09-17T03:07:28.140Z,23.6
2018-09-17T03:08:17.981Z,23.6
2018-09-17T03:09:07.698Z,23.6
2018-09-17T03:09:58.366Z,23.6
2018-09-17T03:10:48.099Z,23.6
2018-09-17T03:11:38.141Z,23.6
2018-09-17T03:12:28.261Z,23.6
2018-09-17T03:13:18.578Z,23.6
2018-09-17T03:14:08.659Z,23.6
2018-09-17T03:14:58.756Z,23.6
2018-09-17T03:15:48.523Z,23.6
2018-09-17T03:16:38.550Z,23.6
2018-09-17T03:17:28.668Z,23.6
2018-09-17T03:18:18.967Z,23.6
2018-09-17T03:19:09.008Z,23.6
2018-09-17T03:19:58.565Z,23.6
2018-09-17T03:20:49.130Z,23.6
2018-09-17T03:21:38.983Z,23.6
2018-09-17T03:22:29.264Z,23.6
2018-09-17T03:23:19.062Z,23.6
2018-09-17T03:24:09.382Z,23.6
2018-09-17T03:24:59.490Z,23.7
2018-09-17T03:25:49.005Z,23.6
2018-09-17T03:26:39.599Z,23.6
2018-09-17T03:27:29.642Z,23.6
2018-09-17T03:28:19.430Z,23.6
2018-09-17T03:29:09.787Z,23.6
2018-09-17T03:29:59.837Z,23.6
2018-09-17T03:30:49.271Z,23.6
2018-09-17T03:31:39.963Z,23.7
2018-09-17T03:32:29.736Z,23.6
2018-09-17T03:33:20.074Z,23.6
2018-09-17T03:34:10.164Z,23.6
2018-09-17T03:34:59.651Z,23.6
2018-09-17T03:35:50.065Z,23.6
2018-09-17T03:36:40.051Z,23.7
2018-09-17T03:37:30.411Z,23.7
2018-09-17T03:38:19.869Z,23.7
2018-09-17T03:39:10.496Z,23.7
2018-09-17T03:40:00.567Z,23.7
2018-09-17T03:40:50.074Z,23.7
2018-09-17T03:41:40.692Z,23.7
2018-09-17T03:42:30.573Z,23.6
2018-09-17T03:43:20.821Z,23.6
2018-09-17T03:44:10.381Z,23.6
2018-09-17T03:45:00.946Z,23.7
2018-09-17T03:45:50.181Z,23.7
2018-09-17T03:46:41.878Z,23.6
2018-09-17T03:47:31.312Z,23.7
2018-09-17T03:48:21.278Z,23.7
2018-09-17T03:49:11.502Z,23.6
2018-09-17T03:50:01.093Z,23.6
2018-09-17T03:50:50.810Z,23.7
2018-09-17T03:51:41.486Z,23.7
2018-09-17T03:52:31.235Z,23.7
2018-09-17T05:25:23.990Z,23.5
2018-09-17T05:26:13.275Z,23.5
2018-09-17T05:27:03.616Z,23.5
2018-09-17T05:27:53.371Z,23.5
2018-09-17T05:28:43.209Z,23.5
2018-09-17T05:29:33.540Z,23.5
2018-09-17T05:30:23.887Z,23.5
2018-09-17T05:31:13.920Z,23.5
2018-09-17T05:32:03.969Z,23.5
2018-09-17T05:32:53.816Z,23.5
2018-09-17T05:33:43.530Z,23.5
2018-09-17T05:34:33.112Z,23.5
2018-09-17T05:35:23.657Z,23.5
2018-09-17T05:36:14.297Z,23.5
2018-09-17T05:37:04.127Z,23.5
2018-09-17T05:37:54.132Z,23.5
2018-09-17T05:38:44.145Z,23.5
2018-09-17T05:39:34.395Z,23.5
2018-09-17T05:40:24.592Z,23.5
2018-09-17T05:41:14.630Z,23.5
2018-09-17T05:42:04.447Z,23.5
2018-09-17T05:42:54.780Z,23.5
2018-09-17T05:43:45.115Z,23.4
2018-09-17T05:44:36.090Z,23.5
2018-09-17T05:45:24.796Z,23.5
2018-09-17T05:46:15.095Z,23.5
2018-09-17T05:47:05.160Z,23.5
2018-09-17T05:47:54.298Z,23.5
2018-09-17T05:48:45.182Z,23.5
2018-09-17T05:49:35.017Z,23.5
2018-09-17T05:50:25.392Z,23.4
2018-09-17T05:51:15.150Z,23.4
2018-09-17T05:52:05.307Z,23.5
2018-09-17T05:52:55.081Z,23.4
2018-09-17T05:53:45.919Z,23.5
2018-09-17T05:54:35.429Z,23.5
2018-09-17T05:55:25.772Z,23.5
2018-09-17T05:56:15.847Z,23.5
2018-09-17T05:57:05.866Z,23.5
2018-09-17T05:57:55.654Z,23.5
2018-09-17T05:58:45.999Z,23.4
2018-09-17T05:59:36.195Z,23.5
2018-09-17T06:00:25.817Z,23.5
2018-09-17T06:01:15.581Z,23.4
2018-09-17T06:02:06.242Z,23.4
2018-09-17T06:02:56.291Z,23.4
2018-09-17T06:03:46.358Z,23.4
2018-09-17T06:04:36.519Z,23.4
2018-09-17T06:05:26.385Z,23.5
2018-09-17T06:06:16.207Z,23.4
2018-09-17T06:07:07.592Z,23.4
2018-09-17T06:07:56.679Z,23.4
2018-09-17T06:08:46.719Z,23.4
2018-09-17T06:09:37.088Z,23.4
2018-09-17T06:10:26.889Z,23.4
2018-09-17T06:11:17.001Z,23.4
2018-09-17T06:12:07.281Z,23.4
2018-09-17T06:12:56.793Z,23.4
2018-09-17T06:13:47.426Z,23.4
2018-09-17T06:14:37.163Z,23.4
2018-09-17T06:15:27.221Z,23.4
2018-09-17T06:16:17.581Z,23.4
2018-09-17T06:17:06.604Z,23.4
2018-09-17T06:17:56.671Z,23.4
2018-09-17T06:18:46.641Z,23.4
2018-09-17T06:19:36.499Z,23.4
2018-09-17T06:20:26.866Z,23.4
2018-09-17T06:21:17.388Z,23.4
2018-09-17T06:22:07.729Z,23.4
2018-09-17T06:22:57.551Z,23.4
2018-09-17T06:23:47.571Z,23.4
2018-09-17T06:24:37.370Z,23.4
2018-09-17T06:25:27.460Z,23.4
2018-09-17T06:26:17.758Z,23.4
2018-09-17T06:27:08.338Z,23.4
2018-09-17T06:27:58.323Z,23.4
2018-09-17T06:28:48.337Z,23.4
2018-09-17T06:29:37.764Z,23.4
2018-09-17T06:30:28.382Z,23.4
2018-09-17T06:31:18.168Z,23.4
2018-09-17T06:32:08.483Z,23.5
2018-09-17T06:32:58.010Z,23.4
2018-09-17T06:33:48.618Z,23.4
2018-09-17T06:34:38.685Z,23.4
2018-09-17T06:35:28.778Z,23.4
2018-09-17T06:36:18.846Z,23.4
2018-09-17T06:37:08.901Z,23.4
2018-09-17T06:37:58.372Z,23.4
2018-09-17T06:38:48.692Z,23.4
2018-09-17T06:39:38.747Z,23.4
2018-09-17T06:40:28.847Z,23.4
2018-09-17T06:41:19.201Z,23.4
2018-09-17T06:42:09.196Z,23.4
2018-09-17T06:42:59.541Z,23.4
2018-09-17T06:43:49.351Z,23.4
2018-09-17T06:44:39.137Z,23.4
2018-09-17T06:45:29.475Z,23.4
2018-09-17T06:46:19.590Z,23.4
2018-09-17T06:47:08.782Z,23.4
2018-09-17T06:48:00.003Z,23.4
2018-09-17T06:48:49.211Z,23.4
2018-09-17T06:49:39.538Z,23.4
2018-09-17T06:50:29.612Z,23.4
2018-09-17T06:51:20.057Z,23.4
2018-09-17T06:52:10.132Z,23.4
2018-09-17T06:53:00.110Z,23.4
2018-09-17T06:53:50.252Z,23.4
2018-09-17T06:54:39.613Z,23.4
2018-09-17T06:55:30.224Z,23.4
2018-09-17T06:56:20.281Z,23.4
2018-09-17T06:57:10.331Z,23.4
2018-09-17T06:58:00.388Z,23.4
2018-09-17T06:58:50.236Z,23.4
2018-09-17T06:59:39.967Z,23.4
2018-09-17T07:00:30.468Z,23.4
2018-09-17T07:01:20.825Z,23.4
2018-09-17T07:02:10.462Z,23.4
2018-09-17T07:03:00.794Z,23.4
2018-09-17T07:03:50.838Z,23.4
2018-09-17T07:04:40.610Z,23.4
2018-09-17T07:05:31.272Z,23.4
2018-09-17T07:06:21.624Z,23.4
2018-09-17T07:07:10.542Z,23.4
2018-09-17T07:08:00.900Z,23.4
2018-09-17T07:08:51.226Z,23.4
2018-09-17T07:09:40.742Z,23.4
2018-09-17T07:10:30.579Z,23.4
2018-09-17T07:11:20.844Z,23.4
2018-09-17T07:12:11.482Z,23.4
2018-09-17T07:13:01.552Z,23.4
2018-09-17T07:13:51.332Z,23.4
2018-09-17T07:14:41.644Z,23.4
2018-09-17T07:15:31.601Z,23.4
2018-09-17T07:16:21.891Z,23.4
2018-09-17T07:17:11.853Z,23.4
2018-09-17T07:18:01.596Z,23.4
2018-09-17T07:18:51.716Z,23.4
2018-09-17T07:19:42.051Z,23.4
2018-09-17T07:20:31.797Z,23.3
2018-09-17T07:21:21.882Z,28.2
2018-09-17T07:22:11.654Z,44.1
2018-09-17T07:23:01.998Z,48.9
2018-09-17T07:23:52.653Z,48.6
2018-09-17T07:24:42.113Z,47.8
2018-09-17T07:25:32.479Z,47.5
2018-09-17T07:26:22.269Z,47.1
2018-09-17T07:27:12.378Z,46.9
2018-09-17T07:28:02.401Z,46.7
2018-09-17T07:28:52.462Z,46.3
2018-09-17T07:29:42.795Z,45.9
2018-09-17T07:30:32.891Z,45.4
2018-09-17T07:31:22.926Z,45
2018-09-17T07:32:12.423Z,44.5
2018-09-17T07:33:02.486Z,44.1
2018-09-17T07:33:53.110Z,43.7
2018-09-17T07:34:42.923Z,43.3
2018-09-17T07:35:33.211Z,42.8
2018-09-17T07:36:24.604Z,42.4
2018-09-17T07:37:13.360Z,42
2018-09-17T07:38:02.085Z,42.1
2018-09-17T07:38:53.497Z,40.9
2018-09-17T07:39:43.255Z,49.9
2018-09-17T07:40:33.670Z,53
2018-09-17T07:41:23.663Z,52.3
2018-09-17T07:42:13.873Z,49.9
2018-09-17T07:43:03.772Z,46.9
2018-09-17T07:43:53.607Z,45.1
2018-09-17T07:44:43.445Z,44.3
2018-09-17T07:45:33.713Z,43.9
2018-09-17T07:46:23.287Z,43.6
2018-09-17T07:47:13.525Z,43.4
2018-09-17T07:48:04.178Z,43.3
2018-09-17T07:48:54.206Z,43
2018-09-17T07:49:44.019Z,42.8
2018-09-17T07:50:34.409Z,42.5
2018-09-17T07:51:23.882Z,48.7
2018-09-17T07:52:13.921Z,54.1
2018-09-17T07:53:04.538Z,54.9
2018-09-17T07:53:54.299Z,54.3
2018-09-17T07:55:34.493Z,49.4
2018-09-17T07:56:24.846Z,47.8
2018-09-17T07:57:14.848Z,47.8
2018-09-17T07:58:04.954Z,48.6
2018-09-17T07:58:55.198Z,49.6
2018-09-17T07:59:45.032Z,50.1
2018-09-17T08:00:34.559Z,50.1
2018-09-17T08:01:25.214Z,49.7
2018-09-17T08:02:15.246Z,49.1
2018-09-17T08:03:05.413Z,48.8
2018-09-17T08:03:54.998Z,48.7
2018-09-17T08:04:44.963Z,48.8
2018-09-17T08:05:34.797Z,49
2018-09-17T08:06:25.448Z,49.2
2018-09-17T08:07:15.623Z,49.3
2018-09-17T08:08:05.395Z,49.3
2018-09-17T08:08:56.023Z,49.2
2018-09-17T08:09:45.523Z,49.2
2018-09-17T08:10:35.585Z,49.2
2018-09-17T08:11:25.391Z,49.3
2018-09-17T08:12:16.020Z,49.3
2018-09-17T08:13:06.149Z,49.4
2018-09-17T08:13:55.814Z,49.5
2018-09-17T08:14:46.220Z,49.6
2018-09-17T08:15:36.250Z,49.7
2018-09-17T08:16:26.097Z,49.8
2018-09-17T08:17:16.390Z,49.9
2018-09-17T08:18:06.172Z,49.9
2018-09-17T08:18:56.547Z,50.1
2018-09-17T08:19:46.783Z,50.2
2018-09-17T08:20:35.891Z,50.3
2018-09-17T08:21:26.687Z,50.4
2018-09-17T08:22:16.478Z,50.4
2018-09-17T08:23:06.253Z,50.6
2018-09-17T08:23:56.404Z,50.7
2018-09-17T08:24:46.439Z,50.8
2018-09-17T08:25:37.229Z,50.9
2018-09-17T08:26:26.524Z,50.9
2018-09-17T08:27:16.851Z,51.1
2018-09-17T08:28:06.896Z,51.1
2018-09-17T08:28:57.284Z,51.3
2018-09-17T08:29:46.633Z,51.4
2018-09-17T08:30:37.140Z,51.5
2018-09-17T08:31:26.900Z,51.6
2018-09-17T08:32:17.508Z,51.7
2018-09-17T08:33:06.750Z,51.8
2018-09-17T08:34:47.818Z,52
2018-09-17T08:35:37.834Z,52.1
2018-09-17T08:36:27.912Z,52.2
2018-09-17T08:37:17.341Z,52.3
2018-09-17T08:38:57.493Z,52.4
2018-09-17T08:39:48.704Z,52.6
2018-09-17T08:40:37.876Z,52.6
2018-09-17T08:41:28.421Z,52.8
2018-09-17T08:42:18.058Z,52.9
2018-09-17T08:43:07.836Z,53.1
2018-09-17T08:43:58.492Z,53.1
2018-09-17T08:44:48.725Z,53.3
2018-09-17T08:45:38.224Z,53.4
2018-09-17T08:46:28.727Z,53.4
2018-09-17T08:47:18.668Z,53.6
2018-09-17T08:48:08.701Z,53.6
2018-09-17T08:48:58.505Z,53.8
2018-09-17T08:49:48.830Z,53.9
2018-09-17T08:50:38.642Z,54
2018-09-17T08:51:28.968Z,54.1
2018-09-17T08:52:18.305Z,54.3
2018-09-17T08:53:09.306Z,54.3
2018-09-17T08:53:59.325Z,54.4
2018-09-17T08:54:48.468Z,54.6
2018-09-17T08:55:38.555Z,54.6
2018-09-17T08:56:28.889Z,54.8
2018-09-17T08:57:18.863Z,54.8
2018-09-17T08:58:09.959Z,54.9
2018-09-17T08:58:58.980Z,55
2018-09-17T08:59:49.660Z,55.1
2018-09-17T09:00:39.396Z,55.1
2018-09-17T09:01:29.752Z,55.2
2018-09-17T09:02:19.527Z,55.3
2018-09-17T09:03:09.590Z,55.4
2018-09-17T09:03:59.888Z,55.4
2018-09-17T09:04:49.440Z,55.6
2018-09-17T09:05:39.877Z,55.6
2018-09-17T09:06:29.754Z,55.7
2018-09-17T09:07:19.949Z,55.8
2018-09-17T09:08:09.782Z,55.8
2018-09-17T09:08:59.861Z,56
2018-09-17T09:09:50.347Z,56.1
2018-09-17T09:10:40.428Z,56.2
2018-09-17T09:11:29.964Z,56.3
2018-09-17T09:12:19.700Z,56.4
2018-09-17T09:13:10.609Z,56.6
2018-09-17T09:14:00.413Z,56.6
2018-09-17T09:14:49.909Z,56.8
2018-09-17T09:15:40.828Z,56.9
2018-09-17T09:16:30.875Z,56.9
2018-09-17T09:17:20.964Z,57.1
2018-09-17T09:18:10.709Z,57.2
2018-09-17T09:19:01.091Z,57.3
2018-09-17T09:19:50.896Z,57.4
2018-09-17T09:20:40.633Z,57.6
2018-09-17T09:21:30.933Z,57.6
2018-09-17T09:22:21.034Z,57.8
2018-09-17T09:23:11.416Z,57.9
2018-09-17T09:39:59.697Z,59.2
2018-09-17T09:40:42.264Z,59.4
2018-09-17T09:41:32.317Z,59.4
2018-09-17T09:42:22.377Z,59.6
2018-09-17T09:43:12.175Z,59.7
2018-09-17T09:44:02.492Z,59.8
2018-09-17T09:44:52.574Z,59.9
2018-09-17T09:45:43.278Z,59.9
2018-09-17T09:46:32.620Z,60.1
2018-09-17T09:47:22.237Z,60.1
2018-09-17T09:48:12.301Z,60.2
2018-09-17T09:49:02.592Z,60.3
2018-09-17T09:49:52.918Z,60.3
2018-09-17T09:50:42.999Z,60.4
2018-09-17T09:51:32.562Z,60.4
2018-09-17T09:52:22.336Z,60.4
2018-09-17T09:53:12.705Z,60.5
2018-09-17T09:54:02.997Z,60.5
2018-09-17T09:54:53.009Z,60.6
2018-09-17T09:55:43.584Z,60.6
2018-09-17T09:56:33.484Z,60.7
2018-09-17T09:57:23.204Z,60.8
2018-09-17T09:58:13.559Z,60.9
2018-09-17T09:59:02.553Z,60.9
2018-09-17T09:59:53.696Z,61.1
2018-09-17T10:00:43.746Z,61.1
2018-09-17T10:01:33.531Z,61.2
2018-09-17T10:02:23.909Z,61.3
2018-09-17T10:03:13.347Z,61.3
2018-09-17T10:04:03.724Z,61.3
2018-09-17T10:04:53.793Z,61.3
2018-09-17T10:05:43.956Z,61.4
2018-09-17T10:06:34.184Z,61.5
2018-09-17T10:07:24.011Z,61.6
2018-09-17T10:08:14.305Z,61.7
2018-09-17T10:09:04.101Z,61.8
2018-09-17T10:09:54.433Z,61.9
2018-09-17T10:10:44.538Z,61.9
2018-09-17T10:11:34.475Z,62
2018-09-17T10:12:24.621Z,62.1
2018-09-17T10:13:14.690Z,62.1
2018-09-17T10:14:03.696Z,62.1
2018-09-17T10:14:54.553Z,62.3
2018-09-17T10:15:44.913Z,62.3
2018-09-17T10:16:34.945Z,62.4
2018-09-17T10:17:25.005Z,62.5
2018-09-17T10:18:14.845Z,62.6
2018-09-17T10:19:04.845Z,62.6
2018-09-17T10:19:54.950Z,62.6
2018-09-17T10:20:45.252Z,62.7
2018-09-17T10:21:35.330Z,62.8
2018-09-17T10:22:25.405Z,62.8
2018-09-17T10:23:15.461Z,62.9
2018-09-17T10:24:05.523Z,63.1
2018-09-17T10:24:55.579Z,63.1
2018-09-17T10:25:45.634Z,63.3
2018-09-17T10:26:35.702Z,63.3
2018-09-17T10:27:25.487Z,63.4
2018-09-17T10:28:16.097Z,63.1
2018-09-17T10:29:05.627Z,62.3
2018-09-17T10:29:56.247Z,61.8
2018-09-17T10:30:45.739Z,62
2018-09-17T10:31:36.346Z,62.3
2018-09-17T10:32:25.854Z,62.2
2018-09-17T10:33:15.664Z,61.3
2018-09-17T10:34:06.280Z,59.9
2018-09-17T10:34:55.864Z,58.6
2018-09-17T10:35:46.394Z,57.6
2018-09-17T10:36:35.649Z,56.9
2018-09-17T10:37:26.793Z,56.7
2018-09-17T10:38:16.098Z,57.1
2018-09-17T10:39:06.828Z,57.7
2018-09-17T10:39:56.719Z,58.4
2018-09-17T10:40:46.800Z,59.4
2018-09-17T10:41:36.863Z,60.3
2018-09-17T10:42:26.623Z,60.8
2018-09-17T10:43:16.691Z,61.1
2018-09-17T10:44:06.765Z,61.3
2018-09-17T10:44:56.833Z,61.4
2018-09-17T10:45:46.907Z,61.6
2018-09-17T10:46:36.477Z,61.8
2018-09-17T10:47:27.283Z,62
2018-09-17T10:48:17.085Z,62.3
2018-09-17T10:49:07.724Z,62.6
2018-09-17T10:49:57.226Z,62.8
2018-09-17T10:50:47.290Z,62.9
2018-09-17T10:51:37.605Z,63.1
2018-09-17T10:52:26.818Z,63.3
2018-09-17T10:53:17.445Z,63.3
2018-09-17T10:54:07.841Z,63.4
2018-09-17T10:54:57.865Z,63.5
2018-09-17T10:55:47.154Z,63.6
2018-09-17T10:56:38.015Z,63.7
2018-09-17T10:57:28.728Z,63.8
2018-09-17T10:58:17.565Z,63.9
2018-09-17T10:59:08.303Z,63.9
2018-09-17T10:59:58.007Z,63.4
2018-09-17T11:00:48.299Z,62.8
2018-09-17T11:01:37.808Z,62.8
2018-09-17T11:02:28.137Z,63.1
2018-09-17T11:03:18.205Z,63.4
2018-09-17T11:04:08.278Z,63.7
2018-09-17T11:04:58.389Z,63.9
2018-09-17T11:05:48.435Z,63.9
2018-09-17T11:06:38.537Z,63.9
2018-09-17T11:07:28.563Z,63.9
2018-09-17T11:08:18.669Z,63.9
2018-09-17T11:09:08.962Z,63.4
2018-09-17T11:09:58.999Z,62.4
2018-09-17T11:10:49.081Z,61.4
2018-09-17T11:11:39.160Z,61.6
2018-09-17T11:12:28.934Z,62.3
2018-09-17T11:13:19.308Z,63
2018-09-17T11:14:08.781Z,63.4
2018-09-17T11:14:59.167Z,63.7
2018-09-17T11:15:49.455Z,63.7
2018-09-17T11:16:39.523Z,63.3
2018-09-17T11:17:30.141Z,62.3
2018-09-17T11:18:19.728Z,61.9
2018-09-17T11:19:09.803Z,62.4
2018-09-17T11:19:59.796Z,63
2018-09-17T11:20:49.604Z,63.6
2018-09-17T11:21:39.931Z,64
2018-09-17T11:22:29.721Z,64.1
2018-09-17T11:23:20.200Z,63.9
2018-09-17T11:24:09.526Z,63.7
2018-09-17T11:25:00.001Z,63.2
2018-09-17T11:25:49.936Z,62.8
2018-09-17T11:26:40.329Z,62.9
2018-09-17T11:27:30.073Z,63
2018-09-17T11:28:20.375Z,62.7
2018-09-17T11:29:10.178Z,61.7
2018-09-17T11:30:00.263Z,60.6
2018-09-17T11:30:50.601Z,60
2018-09-17T11:31:40.393Z,60.3
2018-09-17T11:32:30.915Z,61.1
2018-09-17T11:33:20.115Z,61.5
2018-09-17T11:34:10.423Z,60.8
2018-09-17T11:35:00.652Z,59.6
2018-09-17T11:35:50.980Z,58.1
2018-09-17T11:36:41.030Z,57
2018-09-17T11:37:30.863Z,56.3
2018-09-17T11:38:20.942Z,55.9
2018-09-17T11:39:11.225Z,55.6
2018-09-17T11:40:01.283Z,55.3
2018-09-17T11:40:51.414Z,54.9
2018-09-17T11:41:40.963Z,54.6
2018-09-17T11:42:31.225Z,53.9
2018-09-17T11:43:21.845Z,53.2
2018-09-17T11:44:11.617Z,52.5
2018-09-17T11:45:01.728Z,51.8
2018-09-17T11:45:51.444Z,51.2
2018-09-17T11:46:41.793Z,50.6
2018-09-17T11:47:31.581Z,49.9
2018-09-17T11:48:22.359Z,49.4
2018-09-17T11:49:11.702Z,48.8
2018-09-17T11:50:02.067Z,48.3
2018-09-17T11:50:51.827Z,47.8
2018-09-17T11:51:41.611Z,47.4
2018-09-17T11:52:32.239Z,46.9
2018-09-17T11:53:22.020Z,46.5
2018-09-17T11:54:12.184Z,46.1
2018-09-17T11:55:02.452Z,45.7
2018-09-17T11:55:52.840Z,45.3
2018-09-17T11:56:42.267Z,44.9
2018-09-17T11:57:32.637Z,44.6
2018-09-17T11:58:22.681Z,44.2
2018-09-17T11:59:12.255Z,43.8
2018-09-17T12:00:02.810Z,43.5
2018-09-17T12:00:52.929Z,43.2
2018-09-17T12:01:43.567Z,42.9
2018-09-17T12:02:33.016Z,42.6
2018-09-17T12:03:23.077Z,42.4
2018-09-17T12:04:12.885Z,42.1
2018-09-17T12:05:03.200Z,41.8
2018-09-17T12:05:52.972Z,41.6
2018-09-17T12:06:43.314Z,41.3
2018-09-17T12:07:33.526Z,41
2018-09-17T12:08:23.463Z,40.8
2018-09-17T12:09:14.227Z,40.6
2018-09-17T12:10:03.599Z,40.3
2018-09-17T12:10:53.416Z,40.1
2018-09-17T12:11:43.699Z,39.9
2018-09-17T12:12:33.296Z,39.7
2018-09-17T12:13:23.827Z,39.5
2018-09-17T12:14:13.911Z,39.3
2018-09-17T12:15:03.397Z,39.1
2018-09-17T12:15:53.442Z,38.9
2018-09-17T12:16:43.594Z,38.8
2018-09-17T12:17:34.145Z,38.6
2018-09-17T12:18:23.970Z,38.4
2018-09-17T12:19:14.278Z,38.3
2018-09-17T12:20:04.348Z,38.1
2018-09-17T12:20:54.364Z,37.9
2018-09-17T12:21:44.237Z,39.6
2018-09-17T12:22:34.537Z,43.3
2018-09-17T12:23:24.599Z,55
2018-09-17T12:24:14.423Z,59.9
2018-09-17T12:25:04.739Z,60.5
2018-09-17T12:25:54.495Z,57.8
2018-09-17T12:26:44.563Z,54.4
2018-09-17T12:27:34.915Z,52.8
2018-09-17T12:29:15.039Z,51.4
2018-09-17T12:30:05.098Z,51
2018-09-17T12:30:54.609Z,50.4
2018-09-17T12:31:45.224Z,49.8
2018-09-17T12:32:35.329Z,49.2
2018-09-17T12:33:25.364Z,48.6
2018-09-17T12:34:15.189Z,48.3
2018-09-17T12:35:05.478Z,48.9
2018-09-17T12:35:55.567Z,55.8
2018-09-17T12:36:45.632Z,61.2
2018-09-17T12:37:35.705Z,62.2
2018-09-17T12:38:25.457Z,61.7
2018-09-17T12:39:15.803Z,59.7
2018-09-17T12:40:05.868Z,57.8
2018-09-17T12:40:55.956Z,56.7
2018-09-17T12:41:45.997Z,56.9
2018-09-17T12:42:36.053Z,57.9
2018-09-17T12:43:26.377Z,58.9
2018-09-17T12:44:16.195Z,59.4
2018-09-17T12:45:06.283Z,59.5
2018-09-17T12:45:56.813Z,59.3
2018-09-17T12:46:46.364Z,59
2018-09-17T12:47:36.173Z,58.8
2018-09-17T12:48:26.283Z,58.8
2018-09-17T12:49:16.568Z,59
2018-09-17T12:50:06.635Z,59.2
2018-09-17T12:50:56.239Z,59.3
2018-09-17T12:51:46.852Z,59.3
2018-09-17T12:52:36.807Z,59.2
2018-09-17T12:53:27.130Z,59
2018-09-17T12:54:16.784Z,58.5
2018-09-17T12:55:07.002Z,58
2018-09-17T12:55:57.078Z,58
2018-09-17T12:56:46.715Z,58.2
2018-09-17T12:57:37.171Z,58.1
2018-09-17T12:58:27.362Z,57.3
2018-09-17T12:59:17.042Z,56.4
2018-09-17T13:00:07.399Z,55.6
2018-09-17T13:00:57.500Z,54.9
2018-09-17T13:01:47.042Z,54.3
2018-09-17T13:02:37.886Z,53.5
2018-09-17T13:03:28.142Z,52.8
2018-09-17T13:04:17.721Z,52.2
2018-09-17T13:05:07.813Z,51.6
2018-09-17T13:05:57.830Z,51.1
2018-09-17T13:06:47.952Z,50.7
2018-09-17T13:07:37.921Z,50.2
2018-09-17T13:08:28.041Z,49.7
2018-09-17T13:09:18.081Z,49.2
2018-09-17T13:10:08.159Z,48.7
2018-09-17T13:10:58.241Z,48.2
2018-09-17T13:11:48.297Z,47.7
2018-09-17T13:12:38.639Z,47.4
2018-09-17T13:13:28.420Z,49.5
2018-09-17T13:14:18.554Z,55.8
2018-09-17T13:15:08.560Z,60.1
2018-09-17T13:15:58.605Z,60.4
2018-09-17T13:16:48.401Z,59.2
2018-09-17T13:17:38.779Z,56.9
2018-09-17T13:18:28.844Z,55.4
2018-09-17T13:19:18.585Z,54.8